Time;durP1;ratioP1;P1;durP2;ratioP2;P2;SDS_P1;SDS_P2;PMS_P1;PMS_P2;Temp;Humidity;BMP_temperature;BMP_pressure;BME280_temperature;BME280_humidity;BME280_pressure;Samples;Min_cycle;Max_cycle;Signal;HPM_P1;HPM_P2
2023/12/07 00:00:05;;;;;;;14.60;9.75;;;2.80;99.90;;;;;;5000479;28;20042;-76
2023/12/07 00:02:31;;;;;;;13.65;8.82;;;2.80;99.90;;;;;;5021829;28;20037;-76
2023/12/07 00:04:56;;;;;;;12.65;8.48;;;2.80;99.90;;;;;;4998212;28;20172;-76
2023/12/07 00:07:22;;;;;;;12.73;8.43;;;2.80;99.90;;;;;;5028824;28;20678;-76
2023/12/07 00:09:47;;;;;;;15.00;8.88;;;2.80;99.90;;;;;;5017295;28;20037;-76
2023/12/07 00:12:13;;;;;;;17.13;9.10;;;2.80;99.90;;;;;;5023376;28;20199;-77
2023/12/07 00:14:39;;;;;;;13.50;8.98;;;2.80;99.90;;;;;;5033416;28;20037;-76
2023/12/07 00:17:04;;;;;;;13.32;7.95;;;2.70;99.90;;;;;;5032529;28;20041;-76
2023/12/07 00:19:30;;;;;;;13.98;8.65;;;2.80;99.90;;;;;;5033719;28;20512;-76
2023/12/07 00:21:55;;;;;;;12.25;7.57;;;2.70;99.90;;;;;;5032890;28;20060;-76
2023/12/07 00:24:21;;;;;;;11.50;7.07;;;2.80;99.90;;;;;;5034252;28;20199;-76
2023/12/07 00:26:47;;;;;;;13.32;8.20;;;2.70;99.90;;;;;;5016234;28;20512;-76
2023/12/07 00:29:12;;;;;;;13.23;7.43;;;2.70;99.90;;;;;;5033038;28;20069;-77
2023/12/07 00:31:38;;;;;;;12.60;7.95;;;2.70;99.90;;;;;;5016141;28;20045;-77
2023/12/07 00:34:04;;;;;;;13.20;7.78;;;2.80;99.90;;;;;;5032640;28;20103;-76
2023/12/07 00:36:29;;;;;;;13.40;7.55;;;2.70;99.90;;;;;;5032618;28;20029;-77
2023/12/07 00:38:55;;;;;;;13.07;7.50;;;2.70;99.90;;;;;;5015822;28;20099;-76
2023/12/07 00:41:21;;;;;;;12.25;7.88;;;2.80;99.90;;;;;;5017125;28;20371;-76
2023/12/07 00:43:47;;;;;;;12.45;7.18;;;2.70;99.90;;;;;;5014699;28;20033;-76
2023/12/07 00:46:13;;;;;;;11.98;7.32;;;2.80;99.90;;;;;;5032683;28;20099;-76
2023/12/07 00:48:39;;;;;;;12.93;7.68;;;2.80;99.90;;;;;;5032324;28;20037;-77
2023/12/07 00:51:06;;;;;;;11.15;6.95;;;2.80;99.90;;;;;;5016745;28;20506;-77
2023/12/07 00:53:32;;;;;;;13.02;7.10;;;2.80;99.90;;;;;;5016252;28;20135;-77
2023/12/07 00:55:57;;;;;;;11.20;6.88;;;2.80;99.90;;;;;;5031001;28;20573;-77
2023/12/07 00:58:23;;;;;;;12.00;7.40;;;2.80;99.90;;;;;;5047073;28;20044;-76
2023/12/07 01:00:49;;;;;;;14.50;7.20;;;2.80;99.90;;;;;;5016674;28;20042;-77
2023/12/07 01:03:14;;;;;;;11.77;6.60;;;2.80;99.90;;;;;;5015973;28;20033;-77
2023/12/07 01:05:40;;;;;;;11.27;6.78;;;2.80;99.90;;;;;;5016629;28;20541;-77
2023/12/07 01:08:06;;;;;;;12.32;7.50;;;2.80;99.90;;;;;;5032178;28;20041;-77
2023/12/07 01:10:32;;;;;;;11.00;7.13;;;2.80;99.90;;;;;;5031894;28;20375;-77
2023/12/07 01:12:57;;;;;;;11.15;7.60;;;2.80;99.90;;;;;;5014816;28;20064;-77
2023/12/07 01:15:23;;;;;;;13.68;7.50;;;2.70;99.90;;;;;;5032837;28;20146;-77
2023/12/07 01:17:49;;;;;;;13.48;7.32;;;2.70;99.90;;;;;;5015455;28;20226;-77
2023/12/07 01:20:14;;;;;;;11.20;7.30;;;2.70;99.90;;;;;;5032315;28;20034;-77
2023/12/07 01:22:45;;;;;;;11.30;6.95;;;2.70;99.90;;;;;;5015609;28;20509;-77
2023/12/07 01:25:11;;;;;;;11.05;6.90;;;2.80;99.90;;;;;;5016277;28;20041;-77
2023/12/07 01:27:37;;;;;;;10.60;6.85;;;2.80;99.90;;;;;;5015457;28;20041;-77
2023/12/07 01:30:03;;;;;;;10.98;6.80;;;2.80;99.90;;;;;;5015206;28;20490;-77
2023/12/07 01:32:30;;;;;;;11.48;6.63;;;2.80;99.90;;;;;;5015391;28;20125;-77
2023/12/07 01:34:55;;;;;;;12.10;6.70;;;2.80;99.90;;;;;;5016021;28;20047;-77
2023/12/07 01:37:21;;;;;;;10.75;6.55;;;2.80;99.90;;;;;;5031669;28;20120;-77
2023/12/07 01:39:47;;;;;;;11.27;6.65;;;2.80;99.90;;;;;;5014811;28;20037;-77
2023/12/07 01:42:12;;;;;;;11.13;6.32;;;2.80;99.90;;;;;;5014989;28;20041;-77
2023/12/07 01:44:38;;;;;;;11.27;6.53;;;2.80;99.90;;;;;;5015994;28;20363;-77
2023/12/07 01:47:07;;;;;;;10.80;6.95;;;2.70;99.90;;;;;;5032357;28;20037;-77
2023/12/07 01:49:34;;;;;;;13.18;7.32;;;2.70;99.90;;;;;;5031806;28;20389;-77
2023/12/07 01:52:00;;;;;;;10.57;6.50;;;2.70;99.90;;;;;;5030380;28;20076;-77
2023/12/07 01:54:25;;;;;;;10.82;6.53;;;2.70;99.90;;;;;;5015699;28;20457;-77
2023/12/07 01:56:52;;;;;;;12.77;7.05;;;2.70;99.90;;;;;;5032105;28;20053;-77
2023/12/07 01:59:17;;;;;;;11.80;6.20;;;2.70;99.90;;;;;;5030293;28;20532;-77
2023/12/07 02:01:44;;;;;;;12.93;6.97;;;2.70;99.90;;;;;;5015547;28;20045;-77
2023/12/07 02:04:10;;;;;;;11.27;6.88;;;2.70;99.90;;;;;;5014932;28;20037;-77
2023/12/07 02:06:36;;;;;;;10.75;6.07;;;2.70;99.90;;;;;;5015602;28;20056;-77
2023/12/07 02:09:02;;;;;;;12.32;7.05;;;2.70;99.90;;;;;;5014697;28;20041;-77
2023/12/07 02:11:27;;;;;;;10.15;6.13;;;2.70;99.90;;;;;;5031120;28;20037;-77
2023/12/07 02:13:55;;;;;;;11.95;6.30;;;2.70;99.90;;;;;;5014895;28;20453;-77
2023/12/07 02:16:29;;;;;;;11.07;6.60;;;2.70;99.90;;;;;;5031924;28;20142;-77
2023/12/07 02:19:17;;;;;;;10.82;6.35;;;2.70;99.90;;;;;;5031950;28;20588;-77
2023/12/07 02:21:59;;;;;;;13.68;7.68;;;2.70;99.90;;;;;;5000029;28;20393;-77
2023/12/07 02:24:28;;;;;;;11.43;6.32;;;2.70;99.90;;;;;;5030924;28;20045;-77
2023/12/07 02:26:54;;;;;;;11.02;6.90;;;2.70;99.90;;;;;;5031788;28;20045;-77
2023/12/07 02:29:19;;;;;;;13.88;7.35;;;2.70;99.90;;;;;;5021408;28;20510;-77
2023/12/07 02:31:45;;;;;;;13.50;6.63;;;2.60;99.90;;;;;;5005975;28;20188;-77
2023/12/07 02:34:11;;;;;;;10.38;6.50;;;2.70;99.90;;;;;;5004288;28;20041;-77
2023/12/07 02:36:39;;;;;;;12.95;7.05;;;2.70;99.90;;;;;;5014655;28;20041;-77
2023/12/07 02:39:06;;;;;;;11.85;6.15;;;2.60;99.90;;;;;;5030583;28;20040;-77
2023/12/07 02:41:33;;;;;;;12.13;7.60;;;2.60;99.90;;;;;;5030855;28;20049;-77
2023/12/07 02:43:59;;;;;;;11.63;7.00;;;2.60;99.90;;;;;;5014303;28;20044;-77
2023/12/07 02:46:25;;;;;;;13.07;7.63;;;2.70;99.90;;;;;;5014201;28;20124;-77
2023/12/07 02:48:51;;;;;;;14.52;7.97;;;2.70;99.90;;;;;;5014302;28;20060;-77
2023/12/07 02:51:17;;;;;;;11.85;7.07;;;2.70;99.90;;;;;;5027699;28;20486;-77
2023/12/07 02:53:42;;;;;;;12.95;7.35;;;2.70;99.90;;;;;;5031847;28;20493;-77
2023/12/07 02:56:08;;;;;;;13.10;7.28;;;2.60;99.90;;;;;;5013838;28;20049;-77
2023/12/07 02:58:34;;;;;;;11.35;6.85;;;2.70;99.90;;;;;;5011670;28;20050;-77
2023/12/07 03:00:59;;;;;;;11.38;6.97;;;2.70;99.90;;;;;;5029585;28;20041;-77
2023/12/07 03:03:25;;;;;;;12.00;7.30;;;2.70;99.90;;;;;;5030489;28;20030;-77
2023/12/07 03:05:51;;;;;;;11.73;7.15;;;2.70;99.90;;;;;;5031366;28;20045;-77
2023/12/07 03:08:16;;;;;;;12.40;6.85;;;2.70;99.90;;;;;;5035579;28;20088;-77
2023/12/07 03:10:42;;;;;;;11.30;7.03;;;2.70;99.90;;;;;;5027042;28;20034;-77
2023/12/07 03:13:07;;;;;;;11.77;6.20;;;2.80;99.90;;;;;;5005998;28;21315;-78
2023/12/07 03:15:33;;;;;;;11.90;6.93;;;2.80;99.90;;;;;;5022084;28;20184;-77
2023/12/07 03:17:59;;;;;;;12.82;7.90;;;2.80;99.90;;;;;;5035962;28;20045;-77
2023/12/07 03:20:25;;;;;;;13.20;7.93;;;2.70;99.90;;;;;;5014417;28;20042;-77
2023/12/07 03:22:50;;;;;;;14.15;8.05;;;2.70;99.90;;;;;;5034138;28;20083;-77
2023/12/07 03:25:16;;;;;;;13.30;8.27;;;2.70;99.90;;;;;;5009422;28;20504;-77
2023/12/07 03:27:41;;;;;;;12.98;7.68;;;2.70;99.90;;;;;;4996792;28;20121;-77
2023/12/07 03:30:07;;;;;;;12.70;7.90;;;2.60;99.90;;;;;;5007943;28;20045;-78
2023/12/07 03:32:33;;;;;;;14.60;7.53;;;2.60;99.90;;;;;;5015889;28;20486;-77
2023/12/07 03:34:59;;;;;;;12.25;7.60;;;2.60;99.90;;;;;;5000819;28;20068;-77
2023/12/07 03:37:24;;;;;;;14.20;7.82;;;2.60;99.90;;;;;;5009113;28;20044;-78
2023/12/07 03:39:50;;;;;;;12.20;8.02;;;2.60;99.90;;;;;;4996221;28;20549;-78
2023/12/07 03:42:15;;;;;;;13.63;7.43;;;2.60;99.90;;;;;;5013463;28;20030;-78
2023/12/07 03:44:41;;;;;;;13.10;7.60;;;2.60;99.90;;;;;;5003786;28;20041;-78
2023/12/07 03:47:07;;;;;;;11.98;7.70;;;2.60;99.90;;;;;;5023764;28;20045;-77
2023/12/07 03:49:33;;;;;;;13.45;7.93;;;2.70;99.90;;;;;;5030114;28;20043;-78
2023/12/07 03:51:58;;;;;;;12.25;7.30;;;2.70;99.90;;;;;;5051266;28;20033;-77
2023/12/07 03:54:24;;;;;;;12.30;7.60;;;2.70;99.90;;;;;;5016894;28;20098;-78
2023/12/07 03:56:50;;;;;;;12.43;7.82;;;2.70;99.90;;;;;;5034348;28;20046;-77
2023/12/07 03:59:15;;;;;;;13.10;7.78;;;2.60;99.90;;;;;;4994425;28;20049;-78
2023/12/07 04:01:41;;;;;;;14.00;7.70;;;2.70;99.90;;;;;;4995461;28;20456;-78
2023/12/07 04:04:07;;;;;;;11.82;6.97;;;2.70;99.90;;;;;;4999685;28;20040;-78
2023/12/07 04:06:32;;;;;;;12.65;8.02;;;2.70;99.90;;;;;;5007075;28;20050;-78
2023/12/07 04:08:58;;;;;;;12.25;7.47;;;2.70;99.90;;;;;;5003019;28;20040;-78
2023/12/07 04:11:24;;;;;;;12.93;7.40;;;2.70;99.90;;;;;;5018175;28;20050;-78
2023/12/07 04:13:49;;;;;;;13.15;7.05;;;2.70;99.90;;;;;;5007280;28;20124;-78
2023/12/07 04:16:16;;;;;;;13.52;6.78;;;2.70;99.90;;;;;;5011442;28;20478;-78
2023/12/07 04:18:41;;;;;;;11.40;6.72;;;2.60;99.90;;;;;;5004808;28;21323;-78
2023/12/07 04:21:07;;;;;;;12.38;6.85;;;2.60;99.90;;;;;;5002490;28;20796;-78
2023/12/07 04:23:33;;;;;;;11.02;6.97;;;2.50;99.90;;;;;;5024699;28;20258;-78
2023/12/07 04:25:58;;;;;;;10.68;6.85;;;2.50;99.90;;;;;;5007155;28;20081;-78
2023/12/07 04:28:24;;;;;;;12.20;7.90;;;2.50;99.90;;;;;;4991494;28;20041;-78
2023/12/07 04:30:50;;;;;;;13.23;7.20;;;2.50;99.90;;;;;;5011916;28;20060;-78
2023/12/07 04:33:15;;;;;;;12.32;6.90;;;2.50;99.90;;;;;;4999667;28;20100;-78
2023/12/07 04:35:41;;;;;;;11.70;7.03;;;2.50;99.90;;;;;;5001017;28;20141;-78
2023/12/07 04:38:07;;;;;;;12.27;7.15;;;2.40;99.90;;;;;;5013619;28;20393;-78
2023/12/07 04:40:32;;;;;;;10.50;6.30;;;2.40;99.90;;;;;;5003176;28;20037;-78
2023/12/07 04:42:58;;;;;;;11.35;6.28;;;2.30;99.90;;;;;;5012484;28;20172;-78
2023/12/07 04:45:24;;;;;;;12.10;7.72;;;2.40;99.90;;;;;;5020112;28;20069;-78
2023/12/07 04:47:50;;;;;;;11.98;7.10;;;2.30;99.90;;;;;;5022998;28;20041;-78
2023/12/07 04:50:15;;;;;;;11.32;6.85;;;2.30;99.90;;;;;;5006847;28;20414;-78
2023/12/07 04:52:41;;;;;;;11.85;7.18;;;2.30;99.90;;;;;;5030307;28;20045;-78
2023/12/07 04:55:07;;;;;;;11.98;6.55;;;2.40;99.90;;;;;;5026128;28;20448;-78
2023/12/07 04:57:36;;;;;;;11.63;7.20;;;2.30;99.90;;;;;;4990461;28;20111;-78
2023/12/07 05:00:06;;;;;;;11.90;7.25;;;2.30;99.90;;;;;;4994262;28;20385;-78
2023/12/07 05:02:32;;;;;;;13.23;7.53;;;2.30;99.90;;;;;;5018716;28;20053;-78
2023/12/07 05:04:58;;;;;;;13.50;8.20;;;2.30;99.90;;;;;;5009698;28;20699;-78
2023/12/07 05:07:23;;;;;;;15.55;9.30;;;2.30;99.90;;;;;;5021346;28;20140;-78
2023/12/07 05:09:50;;;;;;;13.70;8.13;;;2.20;99.90;;;;;;5014178;28;20406;-78
2023/12/07 05:12:16;;;;;;;12.70;7.82;;;2.20;99.90;;;;;;4994567;28;20049;-78
2023/12/07 05:14:44;;;;;;;15.80;8.18;;;2.20;99.90;;;;;;5014195;28;20094;-78
2023/12/07 05:17:09;;;;;;;15.32;9.05;;;2.10;99.90;;;;;;5014140;28;20046;-78
2023/12/07 05:19:35;;;;;;;14.05;8.80;;;2.10;99.90;;;;;;5011333;28;20052;-78
2023/12/07 05:22:01;;;;;;;16.25;9.18;;;2.10;99.90;;;;;;5016240;28;20029;-78
2023/12/07 05:24:28;;;;;;;16.13;9.25;;;2.10;99.90;;;;;;4999673;28;20076;-78
2023/12/07 05:26:53;;;;;;;15.07;9.35;;;2.10;99.90;;;;;;5024121;28;20248;-78
2023/12/07 05:29:19;;;;;;;15.30;9.38;;;2.10;99.90;;;;;;5021523;28;20533;-78
2023/12/07 05:31:44;;;;;;;15.90;8.95;;;2.00;99.90;;;;;;5014118;28;20048;-78
2023/12/07 05:34:11;;;;;;;15.23;8.70;;;2.00;99.90;;;;;;4992603;28;21876;-78
2023/12/07 05:36:36;;;;;;;14.75;8.75;;;1.90;99.90;;;;;;5028502;28;20037;-78
2023/12/07 05:39:02;;;;;;;16.27;9.27;;;2.00;99.90;;;;;;4989299;28;20100;-78
2023/12/07 05:41:28;;;;;;;15.95;10.35;;;2.00;99.90;;;;;;5000813;28;20042;-78
2023/12/07 05:43:54;;;;;;;15.40;9.73;;;1.90;99.90;;;;;;4989504;28;20038;-78
2023/12/07 05:46:20;;;;;;;15.55;9.30;;;1.90;99.90;;;;;;5019647;28;20088;-78
2023/12/07 05:48:45;;;;;;;16.48;10.10;;;2.00;99.90;;;;;;4991879;28;20120;-78
2023/12/07 05:51:14;;;;;;;17.50;10.05;;;1.90;99.90;;;;;;5008269;28;20596;-78
2023/12/07 05:53:40;;;;;;;17.48;10.23;;;1.80;99.90;;;;;;5007693;28;20045;-78
2023/12/07 05:56:06;;;;;;;16.42;9.38;;;1.80;99.90;;;;;;5025549;28;20029;-77
2023/12/07 05:58:32;;;;;;;16.10;9.52;;;1.80;99.90;;;;;;4999121;28;20517;-78
2023/12/07 06:01:00;;;;;;;16.77;9.77;;;1.80;99.90;;;;;;5024914;28;20045;-78
2023/12/07 06:03:25;;;;;;;15.65;9.57;;;1.80;99.90;;;;;;5007436;28;20049;-78
2023/12/07 06:05:51;;;;;;;15.88;9.68;;;1.80;99.90;;;;;;5009813;28;20505;-79
2023/12/07 06:08:17;;;;;;;17.83;10.13;;;1.80;99.90;;;;;;5014341;28;20064;-78
2023/12/07 06:10:43;;;;;;;20.27;10.98;;;1.80;99.90;;;;;;5017185;28;20045;-78
2023/12/07 06:13:08;;;;;;;16.85;10.52;;;1.70;99.90;;;;;;5028308;28;20872;-78
2023/12/07 06:15:34;;;;;;;17.75;10.95;;;1.70;99.90;;;;;;5013976;28;20045;-78
2023/12/07 06:18:00;;;;;;;16.77;10.18;;;1.60;99.90;;;;;;4998285;28;20076;-78
2023/12/07 06:20:26;;;;;;;16.85;10.25;;;1.60;99.90;;;;;;5010662;28;20512;-79
2023/12/07 06:22:52;;;;;;;16.85;10.32;;;1.60;99.90;;;;;;5016920;28;20426;-78
2023/12/07 06:25:17;;;;;;;18.35;10.48;;;1.60;99.90;;;;;;5007047;28;20155;-78
2023/12/07 06:27:44;;;;;;;18.60;10.20;;;1.60;99.90;;;;;;5011667;28;20053;-78
2023/12/07 06:30:10;;;;;;;17.13;10.45;;;1.60;99.90;;;;;;5011759;28;20504;-78
2023/12/07 06:32:36;;;;;;;15.75;9.65;;;1.60;99.90;;;;;;5004371;28;20481;-78
2023/12/07 06:35:04;;;;;;;19.10;10.82;;;1.60;99.90;;;;;;5006222;28;20593;-78
2023/12/07 06:37:30;;;;;;;16.80;10.13;;;1.60;99.90;;;;;;5027957;28;20490;-78
2023/12/07 06:39:55;;;;;;;17.80;11.02;;;1.60;99.90;;;;;;5017716;28;20037;-78
2023/12/07 06:42:21;;;;;;;17.08;10.30;;;1.60;99.90;;;;;;5011554;28;20037;-78
2023/12/07 06:44:49;;;;;;;17.95;10.65;;;1.60;99.90;;;;;;5007776;28;20038;-78
2023/12/07 06:47:15;;;;;;;18.55;10.93;;;1.60;99.90;;;;;;5022000;28;20050;-78
2023/12/07 06:49:40;;;;;;;19.23;11.05;;;1.60;99.90;;;;;;5012925;28;20124;-78
2023/12/07 06:52:06;;;;;;;19.08;10.27;;;1.60;99.90;;;;;;5013020;28;20092;-78
2023/12/07 06:54:32;;;;;;;18.30;11.23;;;1.60;99.90;;;;;;5003888;28;20494;-78
2023/12/07 06:56:58;;;;;;;17.27;10.80;;;1.60;99.90;;;;;;5011046;28;20051;-78
2023/12/07 06:59:23;;;;;;;19.50;11.68;;;1.60;99.90;;;;;;5037667;28;20057;-78
2023/12/07 07:01:49;;;;;;;18.85;10.68;;;1.60;99.90;;;;;;5036322;28;20038;-78
2023/12/07 07:04:16;;;;;;;19.30;11.50;;;1.60;99.90;;;;;;5018858;28;20120;-78
2023/12/07 07:06:42;;;;;;;18.50;11.27;;;1.60;99.90;;;;;;5010191;28;20128;-78
2023/12/07 07:09:07;;;;;;;21.15;12.32;;;1.60;99.90;;;;;;5015905;28;20046;-78
2023/12/07 07:11:34;;;;;;;20.25;12.10;;;1.60;99.90;;;;;;4997215;28;20041;-78
2023/12/07 07:14:00;;;;;;;20.23;11.48;;;1.60;99.90;;;;;;5008063;28;20048;-78
2023/12/07 07:16:26;;;;;;;20.20;12.10;;;1.60;99.90;;;;;;5019449;28;20045;-78
2023/12/07 07:18:51;;;;;;;19.90;12.13;;;1.60;99.90;;;;;;5026603;28;20049;-78
2023/12/07 07:21:19;;;;;;;23.17;12.55;;;1.60;99.90;;;;;;5026218;28;20092;-78
2023/12/07 07:23:45;;;;;;;21.25;12.48;;;1.60;99.90;;;;;;5020270;28;20044;-78
2023/12/07 07:26:10;;;;;;;21.48;12.40;;;1.60;99.90;;;;;;5018705;28;20041;-78
2023/12/07 07:28:36;;;;;;;20.67;12.13;;;1.60;99.90;;;;;;5013071;28;20080;-78
2023/12/07 07:31:02;;;;;;;19.60;12.10;;;1.60;99.90;;;;;;5024775;28;20037;-78
2023/12/07 07:33:28;;;;;;;22.15;12.63;;;1.60;99.90;;;;;;5024687;28;20517;-78
2023/12/07 07:35:55;;;;;;;22.05;12.52;;;1.60;99.90;;;;;;5022384;28;20045;-78
2023/12/07 07:38:20;;;;;;;19.90;12.25;;;1.60;99.90;;;;;;5012100;28;20489;-78
2023/12/07 07:40:48;;;;;;;21.58;12.70;;;1.60;99.90;;;;;;5017435;28;20044;-77
2023/12/07 07:43:14;;;;;;;20.75;12.43;;;1.60;99.90;;;;;;5015078;28;20128;-78
2023/12/07 07:45:39;;;;;;;22.23;12.48;;;1.60;99.90;;;;;;5020655;28;20125;-78
2023/12/07 07:48:05;;;;;;;20.83;12.85;;;1.60;99.90;;;;;;5007917;28;20508;-77
2023/12/07 07:50:31;;;;;;;21.52;11.80;;;1.60;99.90;;;;;;5031840;28;20056;-78
2023/12/07 07:52:56;;;;;;;18.70;10.80;;;1.60;99.90;;;;;;5017983;28;20034;-77
2023/12/07 07:55:22;;;;;;;19.73;11.60;;;1.60;99.90;;;;;;5028133;28;20046;-78
2023/12/07 07:57:48;;;;;;;20.17;11.85;;;1.60;99.90;;;;;;5026857;28;20120;-78
2023/12/07 08:00:14;;;;;;;20.48;12.60;;;1.50;99.90;;;;;;5032063;28;20413;-78
2023/12/07 08:02:39;;;;;;;19.13;11.30;;;1.50;99.90;;;;;;5021125;28;20044;-78
2023/12/07 08:05:05;;;;;;;19.25;11.45;;;1.60;99.90;;;;;;5019166;28;20046;-78
2023/12/07 08:07:32;;;;;;;19.98;11.95;;;1.60;99.90;;;;;;5035122;28;20125;-78
2023/12/07 08:09:57;;;;;;;20.52;12.27;;;1.60;99.90;;;;;;5029714;28;20053;-78
2023/12/07 08:12:23;;;;;;;20.65;12.20;;;1.60;99.90;;;;;;5029546;28;20437;-78
2023/12/07 08:14:49;;;;;;;20.52;11.52;;;1.60;99.90;;;;;;5031943;28;20041;-78
2023/12/07 08:17:14;;;;;;;19.55;11.57;;;1.60;99.90;;;;;;5015564;28;20482;-78
2023/12/07 08:19:42;;;;;;;22.05;12.18;;;1.60;99.90;;;;;;5022073;28;20521;-78
2023/12/07 08:22:08;;;;;;;20.73;12.10;;;1.60;99.90;;;;;;5011329;28;20070;-77
2023/12/07 08:24:34;;;;;;;20.45;13.40;;;1.60;99.90;;;;;;5013411;28;20164;-78
2023/12/07 08:26:59;;;;;;;21.27;13.18;;;1.60;99.90;;;;;;5046116;28;20490;-78
2023/12/07 08:29:25;;;;;;;22.80;13.45;;;1.60;99.90;;;;;;5032993;28;20429;-78
2023/12/07 08:31:51;;;;;;;23.05;13.75;;;1.60;99.90;;;;;;5029023;28;20083;-78
2023/12/07 08:34:16;;;;;;;24.58;13.98;;;1.60;99.90;;;;;;5028539;28;20046;-78
2023/12/07 08:36:42;;;;;;;21.50;13.32;;;1.60;99.90;;;;;;5015950;28;20550;-78
2023/12/07 08:39:11;;;;;;;22.48;12.63;;;1.60;99.90;;;;;;4997403;28;20128;-78
2023/12/07 08:41:37;;;;;;;20.45;13.82;;;1.60;99.90;;;;;;5015577;28;21691;-78
2023/12/07 08:44:03;;;;;;;20.38;12.88;;;1.60;99.90;;;;;;5016000;28;20112;-78
2023/12/07 08:46:29;;;;;;;23.40;13.90;;;1.70;99.90;;;;;;5030793;28;20045;-78
2023/12/07 08:48:56;;;;;;;23.05;13.65;;;1.70;99.90;;;;;;5032134;28;20502;-77
2023/12/07 08:51:21;;;;;;;20.75;12.40;;;1.70;99.90;;;;;;5016611;28;20041;-78
2023/12/07 08:53:47;;;;;;;22.75;13.50;;;1.70;99.90;;;;;;5017950;28;20044;-78
2023/12/07 08:56:13;;;;;;;23.63;15.23;;;1.70;99.90;;;;;;5015871;28;20038;-78
2023/12/07 08:58:39;;;;;;;28.58;16.95;;;1.70;99.90;;;;;;5044137;28;20049;-78
2023/12/07 09:01:07;;;;;;;30.67;16.80;;;1.80;99.90;;;;;;5027294;28;20053;-78
2023/12/07 09:03:33;;;;;;;31.63;18.70;;;1.80;99.90;;;;;;5013691;28;20091;-77
2023/12/07 09:06:00;;;;;;;23.73;15.93;;;1.90;99.90;;;;;;5015014;28;20037;-78
2023/12/07 09:08:25;;;;;;;23.77;15.02;;;1.80;99.90;;;;;;5015594;28;20041;-78
2023/12/07 09:10:51;;;;;;;23.27;14.23;;;1.80;99.90;;;;;;5014498;28;20041;-78
2023/12/07 09:13:18;;;;;;;24.05;14.88;;;1.90;99.90;;;;;;5012385;28;20518;-78
2023/12/07 09:15:43;;;;;;;24.75;15.38;;;1.80;99.90;;;;;;5025918;28;20042;-78
2023/12/07 09:18:10;;;;;;;24.42;14.55;;;1.90;99.90;;;;;;5040731;28;20038;-78
2023/12/07 09:20:37;;;;;;;20.42;13.18;;;1.80;99.90;;;;;;5015437;28;20120;-78
2023/12/07 09:23:04;;;;;;;21.00;12.80;;;1.80;99.90;;;;;;5027366;28;20548;-78
2023/12/07 09:25:30;;;;;;;23.23;14.40;;;1.80;99.90;;;;;;5025060;28;20052;-78
2023/12/07 09:27:56;;;;;;;23.85;14.45;;;1.90;99.90;;;;;;5027038;28;20033;-77
2023/12/07 09:30:22;;;;;;;23.83;14.38;;;1.80;99.90;;;;;;5017271;28;20529;-80
2023/12/07 09:32:47;;;;;;;23.65;13.68;;;1.90;99.90;;;;;;5032827;28;20041;-80
2023/12/07 09:35:18;;;;;;;25.05;13.00;;;2.00;99.90;;;;;;5046456;28;20536;-80
2023/12/07 09:37:48;;;;;;;22.08;14.02;;;2.00;99.90;;;;;;5032839;28;20056;-79
2023/12/07 09:40:19;;;;;;;23.25;13.65;;;2.10;99.90;;;;;;5032570;28;20037;-79
2023/12/07 09:42:46;;;;;;;23.98;13.75;;;2.10;99.90;;;;;;5028848;28;20069;-79
2023/12/07 09:45:13;;;;;;;24.60;14.65;;;2.20;99.90;;;;;;5029460;28;20052;-79
2023/12/07 09:47:40;;;;;;;20.48;12.60;;;2.20;99.90;;;;;;5011985;28;20113;-80
2023/12/07 09:50:09;;;;;;;22.38;14.27;;;2.30;99.90;;;;;;5012028;28;20494;-79
2023/12/07 09:52:35;;;;;;;23.80;13.43;;;2.40;99.90;;;;;;5027413;28;20048;-80
2023/12/07 09:55:03;;;;;;;22.05;13.38;;;2.40;99.90;;;;;;5013375;28;20375;-80
2023/12/07 09:57:30;;;;;;;23.98;14.27;;;2.50;99.90;;;;;;5015202;28;20050;-80
2023/12/07 09:59:56;;;;;;;21.40;13.45;;;2.50;99.90;;;;;;5026661;28;20126;-80
2023/12/07 10:02:22;;;;;;;24.13;14.25;;;2.60;99.90;;;;;;5010838;28;20120;-80
2023/12/07 10:04:48;;;;;;;22.23;14.30;;;2.70;99.90;;;;;;5030147;28;20063;-80
2023/12/07 10:07:14;;;;;;;22.40;13.80;;;2.70;99.90;;;;;;5031354;28;20453;-80
2023/12/07 10:09:43;;;;;;;22.13;13.70;;;2.80;99.90;;;;;;5014739;28;20103;-79
2023/12/07 10:12:09;;;;;;;23.63;14.38;;;2.80;99.90;;;;;;5046017;28;20076;-79
2023/12/07 10:14:35;;;;;;;23.88;15.55;;;2.90;99.90;;;;;;5045513;28;20045;-79
2023/12/07 10:17:01;;;;;;;22.52;13.68;;;3.00;99.90;;;;;;5026457;28;20100;-80
2023/12/07 10:19:27;;;;;;;22.25;13.65;;;3.10;99.90;;;;;;5012942;28;20037;-79
2023/12/07 10:21:53;;;;;;;22.23;14.35;;;3.30;99.90;;;;;;5031065;28;20125;-79
2023/12/07 10:24:21;;;;;;;24.90;14.75;;;3.40;99.90;;;;;;5047862;28;20041;-79
2023/12/07 10:26:48;;;;;;;24.00;15.07;;;3.50;99.90;;;;;;5028939;28;20046;-80
2023/12/07 10:29:14;;;;;;;24.70;14.20;;;3.70;99.90;;;;;;5030925;28;20049;-79
2023/12/07 10:31:40;;;;;;;21.63;13.57;;;3.80;99.90;;;;;;5012581;28;20139;-80
2023/12/07 10:34:06;;;;;;;21.90;14.48;;;3.90;99.90;;;;;;5013021;28;20111;-79
2023/12/07 10:36:32;;;;;;;25.63;14.93;;;3.90;99.90;;;;;;5039558;28;20045;-79
2023/12/07 10:38:58;;;;;;;21.88;12.05;;;4.10;99.90;;;;;;5028026;28;20038;-79
2023/12/07 10:41:25;;;;;;;20.08;12.77;;;4.20;99.90;;;;;;5042639;28;20121;-79
2023/12/07 10:43:59;;;;;;;20.30;13.32;;;4.30;99.90;;;;;;5014365;28;20104;-80
2023/12/07 10:46:25;;;;;;;19.10;12.23;;;4.30;99.90;;;;;;5027074;28;20053;-80
2023/12/07 10:49:01;;;;;;;19.60;13.52;;;4.40;99.90;;;;;;5014698;28;20038;-79
2023/12/07 10:51:36;;;;;;;17.92;11.77;;;4.40;99.90;;;;;;5030766;28;20486;-80
2023/12/07 10:54:04;;;;;;;18.40;11.15;;;4.40;99.90;;;;;;5014897;28;20107;-80
2023/12/07 10:56:43;;;;;;;17.85;10.82;;;4.40;99.90;;;;;;5012081;28;20492;-80
2023/12/07 10:59:11;;;;;;;16.67;10.07;;;4.50;99.90;;;;;;5030979;28;20100;-79
2023/12/07 11:01:42;;;;;;;17.60;11.15;;;4.50;99.90;;;;;;5013712;28;20044;-80
2023/12/07 11:04:14;;;;;;;16.00;10.57;;;4.50;99.90;;;;;;5014642;28;20516;-80
2023/12/07 11:06:41;;;;;;;18.63;11.38;;;4.40;99.90;;;;;;5029061;28;20050;-80
2023/12/07 11:09:10;;;;;;;17.92;11.23;;;4.40;99.90;;;;;;5013649;28;20095;-80
2023/12/07 11:11:50;;;;;;;16.70;10.98;;;4.10;99.90;;;;;;5030595;28;20045;-80
2023/12/07 11:14:17;;;;;;;16.58;10.48;;;3.90;99.90;;;;;;5029756;28;20055;-83
2023/12/07 11:16:46;;;;;;;15.75;10.40;;;3.90;99.90;;;;;;5027826;28;20044;-82
2023/12/07 11:19:35;;;;;;;14.32;8.50;;;3.80;99.90;;;;;;5012613;28;20033;-83
2023/12/07 11:22:12;;;;;;;13.93;9.18;;;3.80;99.90;;;;;;5030533;28;20408;-83
2023/12/07 11:24:38;;;;;;;16.35;9.63;;;3.60;99.90;;;;;;5011109;28;20041;-82
2023/12/07 11:27:04;;;;;;;17.67;9.52;;;3.50;99.90;;;;;;5049738;28;20095;-83
2023/12/07 11:29:30;;;;;;;15.57;9.70;;;3.50;99.90;;;;;;5033649;28;20532;-83
2023/12/07 11:32:00;;;;;;;14.07;9.45;;;3.40;99.90;;;;;;5050781;28;20045;-83
2023/12/07 11:34:43;;;;;;;16.30;9.88;;;3.40;99.90;;;;;;5034240;28;20072;-83
2023/12/07 11:37:10;;;;;;;13.10;7.70;;;3.40;99.90;;;;;;5021170;28;20069;-83
2023/12/07 11:39:37;;;;;;;17.20;10.68;;;3.40;99.90;;;;;;5019997;28;20106;-82
2023/12/07 11:42:15;;;;;;;14.20;8.70;;;3.40;99.90;;;;;;5017544;28;20474;-83
2023/12/07 11:44:44;;;;;;;20.23;11.00;;;3.30;99.90;;;;;;5015271;28;20062;-83
2023/12/07 11:47:16;;;;;;;15.10;9.32;;;3.20;99.90;;;;;;5033222;28;20516;-82
2023/12/07 11:49:42;;;;;;;16.88;10.63;;;3.10;99.90;;;;;;5017697;28;20048;-82
2023/12/07 11:52:19;;;;;;;16.48;10.23;;;3.10;99.90;;;;;;5014456;28;20119;-83
2023/12/07 11:54:49;;;;;;;16.63;9.32;;;2.90;99.90;;;;;;5016693;28;20041;-83
2023/12/07 11:57:16;;;;;;;16.33;10.75;;;2.80;99.90;;;;;;5032531;28;20064;-82
2023/12/07 11:59:44;;;;;;;16.00;9.52;;;2.80;99.90;;;;;;5031590;28;20073;-83
2023/12/07 12:02:13;;;;;;;17.75;10.68;;;2.80;99.90;;;;;;5031206;28;20038;-83
2023/12/07 12:04:42;;;;;;;16.40;11.43;;;2.70;99.90;;;;;;5029505;28;20513;-83
2023/12/07 12:07:08;;;;;;;16.75;10.20;;;2.70;99.90;;;;;;5043160;28;20048;-83
2023/12/07 12:09:34;;;;;;;10.98;6.32;;;2.80;99.90;;;;;;5033753;28;20037;-82
2023/12/07 12:12:00;;;;;;;18.88;11.00;;;2.90;99.90;;;;;;5016239;28;20040;-83
2023/12/07 12:14:27;;;;;;;14.93;7.97;;;2.90;99.90;;;;;;5015461;28;20401;-83
2023/12/07 12:16:53;;;;;;;16.35;9.45;;;2.90;99.90;;;;;;5027181;28;20129;-83
2023/12/07 12:19:19;;;;;;;19.05;11.27;;;2.90;99.90;;;;;;5026488;28;20061;-82
2023/12/07 12:21:46;;;;;;;16.70;11.05;;;2.80;99.90;;;;;;5029522;28;20037;-82
2023/12/07 12:24:12;;;;;;;18.33;11.60;;;2.80;99.90;;;;;;5050663;28;20037;-82
2023/12/07 12:26:42;;;;;;;18.30;11.20;;;2.70;99.90;;;;;;5032765;28;20049;-82
2023/12/07 12:29:08;;;;;;;20.45;12.30;;;2.80;99.90;;;;;;5017370;28;20075;-83
2023/12/07 12:31:38;;;;;;;19.30;10.45;;;2.90;99.90;;;;;;5024323;28;20091;-82
2023/12/07 12:34:08;;;;;;;18.42;12.40;;;2.80;99.90;;;;;;5037609;28;20048;-83
2023/12/07 12:36:34;;;;;;;20.55;11.48;;;2.80;99.90;;;;;;5027158;28;20386;-82
2023/12/07 12:39:02;;;;;;;18.17;11.32;;;2.80;99.90;;;;;;5033654;28;20037;-83